sensor_id;sensor_type;location;lat;lon;timestamp;temperature;humidity
32293;DHT22;43233;48.608;8.838;2022-08-01T00:01:52;21.10;46.00
32293;DHT22;43233;48.608;8.838;2022-08-01T00:04:17;21.10;45.90
32293;DHT22;43233;48.608;8.838;2022-08-01T00:06:43;21.10;46.20
32293;DHT22;43233;48.608;8.838;2022-08-01T00:09:08;21.10;46.10
32293;DHT22;43233;48.608;8.838;2022-08-01T00:11:34;21.10;46.20
32293;DHT22;43233;48.608;8.838;2022-08-01T00:14:00;21.10;46.20
32293;DHT22;43233;48.608;8.838;2022-08-01T00:16:25;21.20;46.00
32293;DHT22;43233;48.608;8.838;2022-08-01T00:18:52;21.20;45.80
32293;DHT22;43233;48.608;8.838;2022-08-01T00:21:18;21.20;45.90
32293;DHT22;43233;48.608;8.838;2022-08-01T00:23:44;21.20;45.90
32293;DHT22;43233;48.608;8.838;2022-08-01T00:26:11;21.10;46.10
32293;DHT22;43233;48.608;8.838;2022-08-01T00:28:37;21.10;46.30
32293;DHT22;43233;48.608;8.838;2022-08-01T00:31:03;21.10;46.50
32293;DHT22;43233;48.608;8.838;2022-08-01T00:33:29;21.00;46.70
32293;DHT22;43233;48.608;8.838;2022-08-01T00:35:54;20.90;46.80
32293;DHT22;43233;48.608;8.838;2022-08-01T00:38:21;20.90;46.80
32293;DHT22;43233;48.608;8.838;2022-08-01T00:40:47;20.90;47.10
32293;DHT22;43233;48.608;8.838;2022-08-01T00:43:13;20.90;47.20
32293;DHT22;43233;48.608;8.838;2022-08-01T00:45:39;20.90;47.30
32293;DHT22;43233;48.608;8.838;2022-08-01T00:48:04;20.80;47.50
32293;DHT22;43233;48.608;8.838;2022-08-01T00:50:30;20.80;47.60
32293;DHT22;43233;48.608;8.838;2022-08-01T00:52:57;20.80;47.90
32293;DHT22;43233;48.608;8.838;2022-08-01T00:55:23;20.70;48.30
32293;DHT22;43233;48.608;8.838;2022-08-01T00:57:49;20.60;48.40
32293;DHT22;43233;48.608;8.838;2022-08-01T01:00:15;20.70;48.30
32293;DHT22;43233;48.608;8.838;2022-08-01T01:02:41;20.60;48.10
32293;DHT22;43233;48.608;8.838;2022-08-01T01:05:07;20.60;48.50
32293;DHT22;43233;48.608;8.838;2022-08-01T01:10:50;20.60;48.90
32293;DHT22;43233;48.608;8.838;2022-08-01T01:13:39;20.50;49.20
32293;DHT22;43233;48.608;8.838;2022-08-01T01:16:10;20.50;49.40
32293;DHT22;43233;48.608;8.838;2022-08-01T01:24:17;20.40;50.10
32293;DHT22;43233;48.608;8.838;2022-08-01T01:29:41;20.30;51.00
32293;DHT22;43233;48.608;8.838;2022-08-01T01:32:18;20.20;51.10
32293;DHT22;43233;48.608;8.838;2022-08-01T01:34:46;20.10;51.60
32293;DHT22;43233;48.608;8.838;2022-08-01T01:37:17;20.10;52.40
32293;DHT22;43233;48.608;8.838;2022-08-01T01:39:43;20.10;52.10
32293;DHT22;43233;48.608;8.838;2022-08-01T01:42:09;20.10;52.20
32293;DHT22;43233;48.608;8.838;2022-08-01T01:44:37;20.10;52.50
32293;DHT22;43233;48.608;8.838;2022-08-01T01:47:04;20.00;53.50
32293;DHT22;43233;48.608;8.838;2022-08-01T01:49:30;20.00;52.60
32293;DHT22;43233;48.608;8.838;2022-08-01T01:51:58;20.00;53.00
32293;DHT22;43233;48.608;8.838;2022-08-01T01:54:29;19.90;53.10
32293;DHT22;43233;48.608;8.838;2022-08-01T01:56:57;19.90;53.50
32293;DHT22;43233;48.608;8.838;2022-08-01T01:59:27;19.80;53.90
32293;DHT22;43233;48.608;8.838;2022-08-01T02:01:56;19.80;54.40
32293;DHT22;43233;48.608;8.838;2022-08-01T02:04:24;19.90;54.10
32293;DHT22;43233;48.608;8.838;2022-08-01T02:06:51;19.80;54.20
32293;DHT22;43233;48.608;8.838;2022-08-01T02:09:19;19.80;54.20
32293;DHT22;43233;48.608;8.838;2022-08-01T02:11:47;19.80;54.30
32293;DHT22;43233;48.608;8.838;2022-08-01T02:14:14;19.80;54.50
32293;DHT22;43233;48.608;8.838;2022-08-01T02:16:44;19.80;55.20
32293;DHT22;43233;48.608;8.838;2022-08-01T02:19:10;19.80;55.20
32293;DHT22;43233;48.608;8.838;2022-08-01T02:21:57;19.70;55.60
32293;DHT22;43233;48.608;8.838;2022-08-01T02:27:01;19.60;55.70
32293;DHT22;43233;48.608;8.838;2022-08-01T02:29:35;19.60;55.10
32293;DHT22;43233;48.608;8.838;2022-08-01T02:32:04;19.60;55.20
32293;DHT22;43233;48.608;8.838;2022-08-01T02:34:33;19.60;55.10
32293;DHT22;43233;48.608;8.838;2022-08-01T02:37:01;19.50;55.70
32293;DHT22;43233;48.608;8.838;2022-08-01T02:39:29;19.40;56.20
32293;DHT22;43233;48.608;8.838;2022-08-01T02:41:58;19.30;56.70
32293;DHT22;43233;48.608;8.838;2022-08-01T02:44:31;19.20;57.30
32293;DHT22;43233;48.608;8.838;2022-08-01T02:47:00;19.20;58.00
32293;DHT22;43233;48.608;8.838;2022-08-01T02:49:33;19.20;58.30
32293;DHT22;43233;48.608;8.838;2022-08-01T02:52:20;19.10;59.20
32293;DHT22;43233;48.608;8.838;2022-08-01T02:54:49;19.00;59.60
32293;DHT22;43233;48.608;8.838;2022-08-01T02:57:16;19.00;59.70
32293;DHT22;43233;48.608;8.838;2022-08-01T02:59:43;19.00;59.60
32293;DHT22;43233;48.608;8.838;2022-08-01T03:02:10;19.10;60.10
32293;DHT22;43233;48.608;8.838;2022-08-01T03:04:38;19.00;60.00
32293;DHT22;43233;48.608;8.838;2022-08-01T03:07:06;19.00;60.80
32293;DHT22;43233;48.608;8.838;2022-08-01T03:09:36;18.90;60.80
32293;DHT22;43233;48.608;8.838;2022-08-01T03:12:06;19.00;61.10
32293;DHT22;43233;48.608;8.838;2022-08-01T03:14:36;19.00;60.90
32293;DHT22;43233;48.608;8.838;2022-08-01T03:17:04;18.90;61.10
32293;DHT22;43233;48.608;8.838;2022-08-01T03:19:31;18.90;61.30
32293;DHT22;43233;48.608;8.838;2022-08-01T03:21:59;18.80;62.00
32293;DHT22;43233;48.608;8.838;2022-08-01T03:24:29;18.80;62.30
32293;DHT22;43233;48.608;8.838;2022-08-01T03:26:56;18.70;62.90
32293;DHT22;43233;48.608;8.838;2022-08-01T03:29:25;18.70;63.10
32293;DHT22;43233;48.608;8.838;2022-08-01T03:31:51;18.60;64.10
32293;DHT22;43233;48.608;8.838;2022-08-01T03:34:17;18.50;64.40
32293;DHT22;43233;48.608;8.838;2022-08-01T03:37:13;18.50;64.00
32293;DHT22;43233;48.608;8.838;2022-08-01T03:40:38;18.50;64.50
32293;DHT22;43233;48.608;8.838;2022-08-01T03:42:41;18.40;64.10
32293;DHT22;43233;48.608;8.838;2022-08-01T03:45:11;18.50;64.50
32293;DHT22;43233;48.608;8.838;2022-08-01T03:47:43;18.50;64.60
32293;DHT22;43233;48.608;8.838;2022-08-01T03:50:10;18.20;65.40
32293;DHT22;43233;48.608;8.838;2022-08-01T03:52:38;18.10;66.00
32293;DHT22;43233;48.608;8.838;2022-08-01T03:55:06;18.00;66.10
32293;DHT22;43233;48.608;8.838;2022-08-01T03:57:33;18.00;66.70
32293;DHT22;43233;48.608;8.838;2022-08-01T04:00:00;18.00;66.70
32293;DHT22;43233;48.608;8.838;2022-08-01T04:02:26;18.00;66.30
32293;DHT22;43233;48.608;8.838;2022-08-01T04:04:53;18.00;66.40
32293;DHT22;43233;48.608;8.838;2022-08-01T04:07:30;18.00;66.30
32293;DHT22;43233;48.608;8.838;2022-08-01T04:09:56;18.00;66.50
32293;DHT22;43233;48.608;8.838;2022-08-01T04:12:23;18.00;66.00
32293;DHT22;43233;48.608;8.838;2022-08-01T04:14:48;18.00;66.20
32293;DHT22;43233;48.608;8.838;2022-08-01T04:17:18;18.00;66.10
32293;DHT22;43233;48.608;8.838;2022-08-01T04:19:44;18.00;66.00
32293;DHT22;43233;48.608;8.838;2022-08-01T04:22:11;18.00;66.00
32293;DHT22;43233;48.608;8.838;2022-08-01T04:24:39;18.00;66.10
32293;DHT22;43233;48.608;8.838;2022-08-01T04:27:09;18.00;65.90
32293;DHT22;43233;48.608;8.838;2022-08-01T04:29:37;18.10;65.80
32293;DHT22;43233;48.608;8.838;2022-08-01T04:32:06;18.10;65.90
32293;DHT22;43233;48.608;8.838;2022-08-01T04:34:36;18.20;65.40
32293;DHT22;43233;48.608;8.838;2022-08-01T04:37:03;18.20;65.10
32293;DHT22;43233;48.608;8.838;2022-08-01T04:39:31;18.20;65.20
32293;DHT22;43233;48.608;8.838;2022-08-01T04:41:59;18.30;65.00
32293;DHT22;43233;48.608;8.838;2022-08-01T04:44:29;18.30;65.60
32293;DHT22;43233;48.608;8.838;2022-08-01T04:46:55;18.30;65.50
32293;DHT22;43233;48.608;8.838;2022-08-01T04:49:22;18.30;65.50
32293;DHT22;43233;48.608;8.838;2022-08-01T04:51:55;18.30;65.50
32293;DHT22;43233;48.608;8.838;2022-08-01T04:54:26;18.40;65.50
32293;DHT22;43233;48.608;8.838;2022-08-01T04:56:53;18.30;66.60
32293;DHT22;43233;48.608;8.838;2022-08-01T04:59:21;18.40;65.40
32293;DHT22;43233;48.608;8.838;2022-08-01T05:02:06;18.40;65.30
32293;DHT22;43233;48.608;8.838;2022-08-01T05:04:32;18.50;65.40
32293;DHT22;43233;48.608;8.838;2022-08-01T05:06:58;18.60;65.00
32293;DHT22;43233;48.608;8.838;2022-08-01T05:09:23;18.70;65.20
32293;DHT22;43233;48.608;8.838;2022-08-01T05:11:49;18.80;64.10
32293;DHT22;43233;48.608;8.838;2022-08-01T05:14:14;18.80;63.50
32293;DHT22;43233;48.608;8.838;2022-08-01T05:16:40;18.80;62.70
32293;DHT22;43233;48.608;8.838;2022-08-01T05:19:07;18.80;62.00
32293;DHT22;43233;48.608;8.838;2022-08-01T05:21:33;18.70;61.50
32293;DHT22;43233;48.608;8.838;2022-08-01T05:23:59;18.70;62.10
32293;DHT22;43233;48.608;8.838;2022-08-01T05:26:25;18.60;62.60
32293;DHT22;43233;48.608;8.838;2022-08-01T05:28:50;18.60;62.90
32293;DHT22;43233;48.608;8.838;2022-08-01T05:31:16;18.60;63.20
32293;DHT22;43233;48.608;8.838;2022-08-01T05:33:42;18.60;63.00
32293;DHT22;43233;48.608;8.838;2022-08-01T05:36:07;18.60;62.80
32293;DHT22;43233;48.608;8.838;2022-08-01T05:38:33;18.60;62.50
32293;DHT22;43233;48.608;8.838;2022-08-01T05:40:59;18.60;62.20
32293;DHT22;43233;48.608;8.838;2022-08-01T05:43:24;18.70;61.70
32293;DHT22;43233;48.608;8.838;2022-08-01T05:45:50;18.70;61.60
32293;DHT22;43233;48.608;8.838;2022-08-01T05:48:16;18.70;61.90
32293;DHT22;43233;48.608;8.838;2022-08-01T05:50:41;18.70;62.00
32293;DHT22;43233;48.608;8.838;2022-08-01T05:53:07;18.70;62.20
32293;DHT22;43233;48.608;8.838;2022-08-01T05:55:33;18.70;63.30
32293;DHT22;43233;48.608;8.838;2022-08-01T05:58:00;18.70;62.70
32293;DHT22;43233;48.608;8.838;2022-08-01T06:00:26;18.80;61.90
32293;DHT22;43233;48.608;8.838;2022-08-01T06:02:52;18.80;62.20
32293;DHT22;43233;48.608;8.838;2022-08-01T06:05:18;18.80;62.50
32293;DHT22;43233;48.608;8.838;2022-08-01T06:07:43;18.90;62.40
32293;DHT22;43233;48.608;8.838;2022-08-01T06:10:09;19.00;61.90
32293;DHT22;43233;48.608;8.838;2022-08-01T06:12:36;19.00;62.60
32293;DHT22;43233;48.608;8.838;2022-08-01T06:15:02;19.10;62.40
32293;DHT22;43233;48.608;8.838;2022-08-01T06:17:28;19.10;62.10
32293;DHT22;43233;48.608;8.838;2022-08-01T06:19:54;19.20;62.20
32293;DHT22;43233;48.608;8.838;2022-08-01T06:22:19;19.30;62.10
32293;DHT22;43233;48.608;8.838;2022-08-01T06:24:45;19.30;61.80
32293;DHT22;43233;48.608;8.838;2022-08-01T06:27:11;19.40;61.20
32293;DHT22;43233;48.608;8.838;2022-08-01T06:29:36;19.50;61.30
32293;DHT22;43233;48.608;8.838;2022-08-01T06:32:02;19.50;61.20
32293;DHT22;43233;48.608;8.838;2022-08-01T06:34:28;19.60;60.70
32293;DHT22;43233;48.608;8.838;2022-08-01T06:36:53;19.70;60.10
32293;DHT22;43233;48.608;8.838;2022-08-01T06:39:19;19.70;60.70
32293;DHT22;43233;48.608;8.838;2022-08-01T06:41:45;19.70;60.70
32293;DHT22;43233;48.608;8.838;2022-08-01T06:44:13;19.80;60.90
32293;DHT22;43233;48.608;8.838;2022-08-01T06:46:38;19.90;61.10
32293;DHT22;43233;48.608;8.838;2022-08-01T06:49:04;19.90;61.60
32293;DHT22;43233;48.608;8.838;2022-08-01T06:51:30;20.00;60.80
32293;DHT22;43233;48.608;8.838;2022-08-01T06:53:55;20.10;61.30
32293;DHT22;43233;48.608;8.838;2022-08-01T06:56:21;20.20;61.40
32293;DHT22;43233;48.608;8.838;2022-08-01T06:58:48;20.30;61.40
32293;DHT22;43233;48.608;8.838;2022-08-01T07:01:14;20.40;60.70
32293;DHT22;43233;48.608;8.838;2022-08-01T07:03:39;20.50;60.40
32293;DHT22;43233;48.608;8.838;2022-08-01T07:06:05;20.50;60.60
32293;DHT22;43233;48.608;8.838;2022-08-01T07:08:31;20.60;60.40
32293;DHT22;43233;48.608;8.838;2022-08-01T07:10:56;20.70;59.70
32293;DHT22;43233;48.608;8.838;2022-08-01T07:13:26;20.80;59.40
32293;DHT22;43233;48.608;8.838;2022-08-01T07:15:52;20.80;59.30
32293;DHT22;43233;48.608;8.838;2022-08-01T07:18:18;20.90;59.60
32293;DHT22;43233;48.608;8.838;2022-08-01T07:20:44;20.90;59.50
32293;DHT22;43233;48.608;8.838;2022-08-01T07:23:12;21.00;59.30
32293;DHT22;43233;48.608;8.838;2022-08-01T07:25:37;21.10;58.70
32293;DHT22;43233;48.608;8.838;2022-08-01T07:28:03;21.10;58.70
32293;DHT22;43233;48.608;8.838;2022-08-01T07:30:29;21.20;58.20
32293;DHT22;43233;48.608;8.838;2022-08-01T07:32:55;21.20;58.50
32293;DHT22;43233;48.608;8.838;2022-08-01T07:35:21;21.30;58.20
32293;DHT22;43233;48.608;8.838;2022-08-01T07:37:46;21.40;58.00
32293;DHT22;43233;48.608;8.838;2022-08-01T07:40:12;21.50;58.50
32293;DHT22;43233;48.608;8.838;2022-08-01T07:42:38;21.60;58.10
32293;DHT22;43233;48.608;8.838;2022-08-01T07:45:09;21.70;57.40
32293;DHT22;43233;48.608;8.838;2022-08-01T07:47:35;21.90;57.30
32293;DHT22;43233;48.608;8.838;2022-08-01T07:50:01;22.00;56.80
32293;DHT22;43233;48.608;8.838;2022-08-01T07:52:27;22.20;56.10
32293;DHT22;43233;48.608;8.838;2022-08-01T07:54:53;22.30;56.50
32293;DHT22;43233;48.608;8.838;2022-08-01T07:57:20;22.40;55.30
32293;DHT22;43233;48.608;8.838;2022-08-01T07:59:45;22.40;56.00
32293;DHT22;43233;48.608;8.838;2022-08-01T08:02:11;22.50;55.20
32293;DHT22;43233;48.608;8.838;2022-08-01T08:04:36;22.60;54.50
32293;DHT22;43233;48.608;8.838;2022-08-01T08:07:02;22.60;55.20
32293;DHT22;43233;48.608;8.838;2022-08-01T08:09:28;22.70;55.70
32293;DHT22;43233;48.608;8.838;2022-08-01T08:11:54;22.80;54.40
32293;DHT22;43233;48.608;8.838;2022-08-01T08:14:19;23.00;54.00
32293;DHT22;43233;48.608;8.838;2022-08-01T08:16:48;23.10;54.30
32293;DHT22;43233;48.608;8.838;2022-08-01T08:19:14;23.30;54.20
32293;DHT22;43233;48.608;8.838;2022-08-01T08:21:39;23.40;53.40
32293;DHT22;43233;48.608;8.838;2022-08-01T08:24:07;23.60;54.10
32293;DHT22;43233;48.608;8.838;2022-08-01T08:26:45;23.70;53.90
32293;DHT22;43233;48.608;8.838;2022-08-01T08:29:10;23.90;51.90
32293;DHT22;43233;48.608;8.838;2022-08-01T08:31:36;24.00;51.70
32293;DHT22;43233;48.608;8.838;2022-08-01T08:34:02;24.10;52.00
32293;DHT22;43233;48.608;8.838;2022-08-01T08:36:27;24.10;51.50
32293;DHT22;43233;48.608;8.838;2022-08-01T08:38:53;24.20;52.40
32293;DHT22;43233;48.608;8.838;2022-08-01T08:41:20;24.10;50.00
32293;DHT22;43233;48.608;8.838;2022-08-01T08:43:45;24.00;50.30
32293;DHT22;43233;48.608;8.838;2022-08-01T08:46:12;24.10;50.10
32293;DHT22;43233;48.608;8.838;2022-08-01T08:48:40;24.10;50.80
32293;DHT22;43233;48.608;8.838;2022-08-01T08:51:08;24.20;48.80
32293;DHT22;43233;48.608;8.838;2022-08-01T08:53:39;24.20;48.80
32293;DHT22;43233;48.608;8.838;2022-08-01T08:56:08;24.40;48.80
32293;DHT22;43233;48.608;8.838;2022-08-01T08:58:36;24.60;48.10
32293;DHT22;43233;48.608;8.838;2022-08-01T09:01:07;24.60;48.00
32293;DHT22;43233;48.608;8.838;2022-08-01T09:03:34;24.50;48.20
32293;DHT22;43233;48.608;8.838;2022-08-01T09:06:01;24.50;48.90
32293;DHT22;43233;48.608;8.838;2022-08-01T09:08:26;24.50;47.20
32293;DHT22;43233;48.608;8.838;2022-08-01T09:10:52;24.50;47.00
32293;DHT22;43233;48.608;8.838;2022-08-01T09:13:17;24.60;48.10
32293;DHT22;43233;48.608;8.838;2022-08-01T09:15:52;24.70;49.10
32293;DHT22;43233;48.608;8.838;2022-08-01T09:18:36;24.90;47.20
32293;DHT22;43233;48.608;8.838;2022-08-01T09:23:32;25.00;45.20
32293;DHT22;43233;48.608;8.838;2022-08-01T09:25:58;25.00;46.30
32293;DHT22;43233;48.608;8.838;2022-08-01T09:28:28;24.90;44.90
32293;DHT22;43233;48.608;8.838;2022-08-01T09:30:56;24.90;46.00
32293;DHT22;43233;48.608;8.838;2022-08-01T09:33:22;24.90;45.30
32293;DHT22;43233;48.608;8.838;2022-08-01T09:35:55;25.00;45.80
32293;DHT22;43233;48.608;8.838;2022-08-01T09:38:23;25.10;46.30
32293;DHT22;43233;48.608;8.838;2022-08-01T09:43:17;25.30;45.30
32293;DHT22;43233;48.608;8.838;2022-08-01T09:45:43;25.40;43.90
32293;DHT22;43233;48.608;8.838;2022-08-01T09:48:10;25.30;42.90
32293;DHT22;43233;48.608;8.838;2022-08-01T09:50:47;25.40;43.90
32293;DHT22;43233;48.608;8.838;2022-08-01T09:53:14;25.50;45.20
32293;DHT22;43233;48.608;8.838;2022-08-01T09:55:41;25.60;43.40
32293;DHT22;43233;48.608;8.838;2022-08-01T09:58:07;25.60;42.40
32293;DHT22;43233;48.608;8.838;2022-08-01T10:00:34;25.40;42.80
32293;DHT22;43233;48.608;8.838;2022-08-01T10:03:22;25.50;42.80
32293;DHT22;43233;48.608;8.838;2022-08-01T10:05:48;25.60;43.40
32293;DHT22;43233;48.608;8.838;2022-08-01T10:08:14;25.80;44.10
32293;DHT22;43233;48.608;8.838;2022-08-01T10:10:40;26.00;41.40
32293;DHT22;43233;48.608;8.838;2022-08-01T10:13:06;26.10;41.50
32293;DHT22;43233;48.608;8.838;2022-08-01T10:15:34;26.10;42.10
32293;DHT22;43233;48.608;8.838;2022-08-01T10:18:01;26.00;40.70
32293;DHT22;43233;48.608;8.838;2022-08-01T10:20:29;26.10;41.20
32293;DHT22;43233;48.608;8.838;2022-08-01T10:22:58;26.00;40.90
32293;DHT22;43233;48.608;8.838;2022-08-01T10:25:33;26.00;41.20
32293;DHT22;43233;48.608;8.838;2022-08-01T10:28:00;26.10;40.60
32293;DHT22;43233;48.608;8.838;2022-08-01T10:30:27;26.30;39.60
32293;DHT22;43233;48.608;8.838;2022-08-01T10:32:54;26.40;39.20
32293;DHT22;43233;48.608;8.838;2022-08-01T10:35:20;26.40;38.90
32293;DHT22;43233;48.608;8.838;2022-08-01T10:37:47;26.50;40.50
32293;DHT22;43233;48.608;8.838;2022-08-01T10:40:13;26.60;40.90
32293;DHT22;43233;48.608;8.838;2022-08-01T10:42:41;26.60;41.10
32293;DHT22;43233;48.608;8.838;2022-08-01T10:45:09;26.60;40.30
32293;DHT22;43233;48.608;8.838;2022-08-01T10:47:51;26.50;40.20
32293;DHT22;43233;48.608;8.838;2022-08-01T10:50:38;26.40;39.60
32293;DHT22;43233;48.608;8.838;2022-08-01T10:56:02;26.30;40.10
32293;DHT22;43233;48.608;8.838;2022-08-01T10:58:36;26.20;39.50
32293;DHT22;43233;48.608;8.838;2022-08-01T11:06:54;26.30;40.00
32293;DHT22;43233;48.608;8.838;2022-08-01T11:09:27;26.40;42.20
32293;DHT22;43233;48.608;8.838;2022-08-01T11:12:03;26.60;42.00
32293;DHT22;43233;48.608;8.838;2022-08-01T11:14:33;26.90;40.50
32293;DHT22;43233;48.608;8.838;2022-08-01T11:17:34;27.00;39.30
32293;DHT22;43233;48.608;8.838;2022-08-01T11:20:17;27.10;39.90
32293;DHT22;43233;48.608;8.838;2022-08-01T11:28:22;27.70;38.00
32293;DHT22;43233;48.608;8.838;2022-08-01T11:41:22;27.80;35.20
32293;DHT22;43233;48.608;8.838;2022-08-01T11:52:07;27.60;36.90
32293;DHT22;43233;48.608;8.838;2022-08-01T11:54:38;27.60;35.50
32293;DHT22;43233;48.608;8.838;2022-08-01T11:57:09;27.60;36.80
32293;DHT22;43233;48.608;8.838;2022-08-01T11:59:37;27.70;36.20
32293;DHT22;43233;48.608;8.838;2022-08-01T12:02:03;28.00;36.60
32293;DHT22;43233;48.608;8.838;2022-08-01T12:07:16;28.20;35.80
32293;DHT22;43233;48.608;8.838;2022-08-01T12:09:41;28.30;36.10
32293;DHT22;43233;48.608;8.838;2022-08-01T12:12:08;28.60;36.10
32293;DHT22;43233;48.608;8.838;2022-08-01T12:14:34;28.80;30.70
32293;DHT22;43233;48.608;8.838;2022-08-01T12:16:59;28.60;30.70
32293;DHT22;43233;48.608;8.838;2022-08-01T12:19:25;28.30;31.30
32293;DHT22;43233;48.608;8.838;2022-08-01T12:22:07;28.20;32.50
32293;DHT22;43233;48.608;8.838;2022-08-01T12:24:34;28.10;32.60
32293;DHT22;43233;48.608;8.838;2022-08-01T12:27:01;28.10;35.40
32293;DHT22;43233;48.608;8.838;2022-08-01T12:29:41;28.40;33.60
32293;DHT22;43233;48.608;8.838;2022-08-01T12:34:52;28.40;34.00
32293;DHT22;43233;48.608;8.838;2022-08-01T12:37:18;28.60;34.60
32293;DHT22;43233;48.608;8.838;2022-08-01T12:39:44;28.80;34.00
32293;DHT22;43233;48.608;8.838;2022-08-01T12:42:13;28.60;32.40
32293;DHT22;43233;48.608;8.838;2022-08-01T12:44:39;28.60;33.30
32293;DHT22;43233;48.608;8.838;2022-08-01T12:47:06;28.60;33.90
32293;DHT22;43233;48.608;8.838;2022-08-01T12:49:35;28.70;33.40
32293;DHT22;43233;48.608;8.838;2022-08-01T12:52:03;28.70;32.20
32293;DHT22;43233;48.608;8.838;2022-08-01T12:54:29;28.70;33.00
32293;DHT22;43233;48.608;8.838;2022-08-01T12:56:54;29.00;34.00
32293;DHT22;43233;48.608;8.838;2022-08-01T12:59:24;29.00;31.10
32293;DHT22;43233;48.608;8.838;2022-08-01T13:01:56;28.70;31.10
32293;DHT22;43233;48.608;8.838;2022-08-01T13:04:22;28.80;31.80
32293;DHT22;43233;48.608;8.838;2022-08-01T13:06:52;28.70;32.90
32293;DHT22;43233;48.608;8.838;2022-08-01T13:09:18;28.80;30.80
32293;DHT22;43233;48.608;8.838;2022-08-01T13:11:44;28.90;30.30
32293;DHT22;43233;48.608;8.838;2022-08-01T13:14:26;29.10;31.50
32293;DHT22;43233;48.608;8.838;2022-08-01T13:16:52;29.40;33.00
32293;DHT22;43233;48.608;8.838;2022-08-01T13:19:18;29.60;31.30
32293;DHT22;43233;48.608;8.838;2022-08-01T13:22:01;29.50;31.40
32293;DHT22;43233;48.608;8.838;2022-08-01T13:24:28;29.60;31.70
32293;DHT22;43233;48.608;8.838;2022-08-01T13:26:59;29.70;32.50
32293;DHT22;43233;48.608;8.838;2022-08-01T13:29:36;29.80;31.90
32293;DHT22;43233;48.608;8.838;2022-08-01T13:32:16;29.80;29.70
32293;DHT22;43233;48.608;8.838;2022-08-01T13:34:42;29.70;31.90
32293;DHT22;43233;48.608;8.838;2022-08-01T13:37:08;29.80;31.50
32293;DHT22;43233;48.608;8.838;2022-08-01T13:39:34;29.80;31.20
32293;DHT22;43233;48.608;8.838;2022-08-01T13:42:07;29.80;32.20
32293;DHT22;43233;48.608;8.838;2022-08-01T13:44:33;29.80;32.00
32293;DHT22;43233;48.608;8.838;2022-08-01T13:46:58;30.00;32.00
32293;DHT22;43233;48.608;8.838;2022-08-01T13:49:24;30.10;30.80
32293;DHT22;43233;48.608;8.838;2022-08-01T13:51:50;30.10;31.10
32293;DHT22;43233;48.608;8.838;2022-08-01T13:54:16;30.00;30.30
32293;DHT22;43233;48.608;8.838;2022-08-01T13:56:42;29.80;30.00
32293;DHT22;43233;48.608;8.838;2022-08-01T13:59:09;29.70;31.40
32293;DHT22;43233;48.608;8.838;2022-08-01T14:01:35;29.60;32.20
32293;DHT22;43233;48.608;8.838;2022-08-01T14:04:02;29.40;32.60
32293;DHT22;43233;48.608;8.838;2022-08-01T14:06:28;29.10;32.50
32293;DHT22;43233;48.608;8.838;2022-08-01T14:08:53;28.70;33.20
32293;DHT22;43233;48.608;8.838;2022-08-01T14:11:19;28.50;34.00
32293;DHT22;43233;48.608;8.838;2022-08-01T14:13:45;28.50;35.80
32293;DHT22;43233;48.608;8.838;2022-08-01T14:16:11;28.40;34.90
32293;DHT22;43233;48.608;8.838;2022-08-01T14:18:37;28.30;34.90
32293;DHT22;43233;48.608;8.838;2022-08-01T14:21:02;28.20;35.50
32293;DHT22;43233;48.608;8.838;2022-08-01T14:23:28;28.40;35.70
32293;DHT22;43233;48.608;8.838;2022-08-01T14:25:54;28.40;35.30
32293;DHT22;43233;48.608;8.838;2022-08-01T14:28:20;28.60;35.50
32293;DHT22;43233;48.608;8.838;2022-08-01T14:30:46;28.70;35.50
32293;DHT22;43233;48.608;8.838;2022-08-01T14:33:12;28.70;34.40
32293;DHT22;43233;48.608;8.838;2022-08-01T14:35:38;28.60;34.60
32293;DHT22;43233;48.608;8.838;2022-08-01T14:38:04;28.50;34.30
32293;DHT22;43233;48.608;8.838;2022-08-01T14:40:30;28.40;34.40
32293;DHT22;43233;48.608;8.838;2022-08-01T14:42:56;28.40;34.50
32293;DHT22;43233;48.608;8.838;2022-08-01T14:45:22;28.40;34.90
32293;DHT22;43233;48.608;8.838;2022-08-01T14:47:47;28.30;35.60
32293;DHT22;43233;48.608;8.838;2022-08-01T14:50:14;28.00;35.50
32293;DHT22;43233;48.608;8.838;2022-08-01T14:52:41;27.90;35.20
32293;DHT22;43233;48.608;8.838;2022-08-01T14:55:09;27.70;35.70
32293;DHT22;43233;48.608;8.838;2022-08-01T14:57:37;27.70;36.40
32293;DHT22;43233;48.608;8.838;2022-08-01T15:00:05;27.70;36.00
32293;DHT22;43233;48.608;8.838;2022-08-01T15:02:31;27.60;36.00
32293;DHT22;43233;48.608;8.838;2022-08-01T15:04:57;27.60;36.40
32293;DHT22;43233;48.608;8.838;2022-08-01T15:07:23;27.60;36.70
32293;DHT22;43233;48.608;8.838;2022-08-01T15:09:48;27.80;36.80
32293;DHT22;43233;48.608;8.838;2022-08-01T15:12:14;27.80;36.50
32293;DHT22;43233;48.608;8.838;2022-08-01T15:14:40;27.60;36.50
32293;DHT22;43233;48.608;8.838;2022-08-01T15:17:24;27.60;36.80
32293;DHT22;43233;48.608;8.838;2022-08-01T15:19:53;27.60;37.50
32293;DHT22;43233;48.608;8.838;2022-08-01T15:22:20;27.60;37.20
32293;DHT22;43233;48.608;8.838;2022-08-01T15:24:47;27.80;36.80
32293;DHT22;43233;48.608;8.838;2022-08-01T15:27:13;27.70;37.20
32293;DHT22;43233;48.608;8.838;2022-08-01T15:29:39;27.70;37.50
32293;DHT22;43233;48.608;8.838;2022-08-01T15:32:05;27.80;37.90
32293;DHT22;43233;48.608;8.838;2022-08-01T15:34:33;27.60;37.70
32293;DHT22;43233;48.608;8.838;2022-08-01T15:36:59;27.60;38.30
32293;DHT22;43233;48.608;8.838;2022-08-01T15:39:24;27.60;37.90
32293;DHT22;43233;48.608;8.838;2022-08-01T15:41:50;27.50;37.70
32293;DHT22;43233;48.608;8.838;2022-08-01T15:44:16;27.30;38.30
32293;DHT22;43233;48.608;8.838;2022-08-01T15:46:48;27.30;38.60
32293;DHT22;43233;48.608;8.838;2022-08-01T15:49:15;27.20;38.10
32293;DHT22;43233;48.608;8.838;2022-08-01T15:51:41;27.20;38.20
32293;DHT22;43233;48.608;8.838;2022-08-01T15:54:07;27.00;38.30
32293;DHT22;43233;48.608;8.838;2022-08-01T15:56:33;26.80;38.40
32293;DHT22;43233;48.608;8.838;2022-08-01T15:58:59;26.70;39.20
32293;DHT22;43233;48.608;8.838;2022-08-01T16:01:24;26.70;38.80
32293;DHT22;43233;48.608;8.838;2022-08-01T16:03:54;26.60;39.40
32293;DHT22;43233;48.608;8.838;2022-08-01T16:06:20;26.60;39.60
32293;DHT22;43233;48.608;8.838;2022-08-01T16:08:46;26.70;39.50
32293;DHT22;43233;48.608;8.838;2022-08-01T16:11:11;26.80;39.30
32293;DHT22;43233;48.608;8.838;2022-08-01T16:13:37;26.70;39.20
32293;DHT22;43233;48.608;8.838;2022-08-01T16:16:03;26.60;39.40
32293;DHT22;43233;48.608;8.838;2022-08-01T16:18:30;26.50;39.50
32293;DHT22;43233;48.608;8.838;2022-08-01T16:20:56;26.40;39.90
32293;DHT22;43233;48.608;8.838;2022-08-01T16:23:25;26.30;39.80
32293;DHT22;43233;48.608;8.838;2022-08-01T16:25:51;26.10;39.90
32293;DHT22;43233;48.608;8.838;2022-08-01T16:28:18;26.00;40.50
32293;DHT22;43233;48.608;8.838;2022-08-01T16:30:44;26.00;40.50
32293;DHT22;43233;48.608;8.838;2022-08-01T16:33:10;26.00;41.00